createdAt,value
2022-12-11T00:00:26.568Z,98069.45
2022-12-11T00:02:31.342Z,98062.33
2022-12-11T00:04:36.144Z,98056.49
2022-12-11T00:06:40.836Z,98060.41
2022-12-11T00:08:45.770Z,98063.21
2022-12-11T00:10:50.761Z,98060.17
2022-12-11T00:12:55.448Z,98055.67
2022-12-11T00:15:00.217Z,98072.73
2022-12-11T00:17:05.223Z,98064.46
2022-12-11T00:19:12.475Z,98056.34
2022-12-11T00:21:17.624Z,98055.36
2022-12-11T00:23:23.113Z,98049.38
2022-12-11T00:25:27.728Z,98039.98
2022-12-11T00:27:32.605Z,98036.31
2022-12-11T00:29:37.348Z,98039.26
2022-12-11T00:31:42.310Z,98051.77
2022-12-11T00:33:47.524Z,98052.04
2022-12-11T00:35:52.170Z,98033.19
2022-12-11T00:37:57.395Z,98031.85
2022-12-11T00:40:02.146Z,98046.23
2022-12-11T00:42:07.766Z,98043.04
2022-12-11T00:44:12.443Z,98052.65
2022-12-11T00:46:17.238Z,98051.80
2022-12-11T00:48:22.654Z,98057.33
2022-12-11T00:50:27.393Z,98058.45
2022-12-11T00:52:32.035Z,98069.81
2022-12-11T00:54:36.839Z,98054.17
2022-12-11T00:56:41.526Z,98051.80
2022-12-11T00:58:46.721Z,98055.09
2022-12-11T01:00:51.537Z,98057.42
2022-12-11T01:02:56.231Z,98059.66
2022-12-11T01:05:00.987Z,98063.04
2022-12-11T01:07:05.744Z,98077.40
2022-12-11T01:09:10.381Z,98066.91
2022-12-11T01:11:16.815Z,98074.23
2022-12-11T01:13:21.717Z,98070.98
2022-12-11T01:15:28.158Z,98082.45
2022-12-11T01:17:32.957Z,98084.45
2022-12-11T01:19:37.560Z,98069.35
2022-12-11T01:21:42.233Z,98069.70
2022-12-11T01:23:49.597Z,98078.27
2022-12-11T01:25:54.335Z,98065.41
2022-12-11T01:27:58.963Z,98080.02
2022-12-11T01:30:04.026Z,98080.08
2022-12-11T01:32:08.672Z,98064.30
2022-12-11T01:34:13.895Z,98070.00
2022-12-11T01:36:21.334Z,98067.61
2022-12-11T01:38:29.115Z,98087.97
2022-12-11T01:40:33.907Z,98069.77
2022-12-11T01:42:38.999Z,98068.73
2022-12-11T01:45:27.301Z,98072.48
2022-12-11T01:47:32.151Z,98075.56
2022-12-11T01:49:39.166Z,98075.48
2022-12-11T01:51:49.224Z,98088.48
2022-12-11T01:53:59.523Z,98078.16
2022-12-11T01:56:04.789Z,98084.70
2022-12-11T01:58:10.326Z,98083.83
2022-12-11T02:00:16.897Z,98099.04
2022-12-11T02:02:26.325Z,98095.63
2022-12-11T02:04:31.841Z,98095.39
2022-12-11T02:06:39.934Z,98092.59
2022-12-11T02:08:44.596Z,98108.08
2022-12-11T02:11:05.143Z,98087.88
2022-12-11T02:13:16.580Z,98088.27
2022-12-11T02:15:30.487Z,98091.47
2022-12-11T02:17:40.765Z,98087.45
2022-12-11T02:19:58.022Z,98081.81
2022-12-11T02:22:09.020Z,98093.61
2022-12-11T02:24:32.588Z,98095.87
2022-12-11T02:26:54.204Z,98092.74
2022-12-11T02:29:00.986Z,98101.47
2022-12-11T02:31:12.223Z,98091.73
2022-12-11T02:33:21.693Z,98086.52
2022-12-11T02:35:30.406Z,98088.55
2022-12-11T02:37:39.118Z,98086.20
2022-12-11T02:39:45.989Z,98088.72
2022-12-11T02:41:51.945Z,98080.89
2022-12-11T02:43:58.661Z,98080.81
2022-12-11T02:46:07.512Z,98088.69
2022-12-11T02:48:14.247Z,98088.02
2022-12-11T02:50:21.232Z,98104.08
2022-12-11T02:52:28.345Z,98083.51
2022-12-11T02:54:37.439Z,98086.82
2022-12-11T02:56:46.464Z,98076.27
2022-12-11T02:58:58.703Z,98068.39
2022-12-11T03:01:03.690Z,98073.73
2022-12-11T03:03:08.471Z,98070.94
2022-12-11T03:05:14.593Z,98097.05
2022-12-11T03:07:24.382Z,98069.20
2022-12-11T03:09:29.178Z,98076.70
2022-12-11T03:11:33.947Z,98074.93
2022-12-11T03:13:39.252Z,98064.70
2022-12-11T03:16:02.638Z,98061.80
2022-12-11T03:18:15.603Z,98063.05
2022-12-11T03:20:30.591Z,98071.39
2022-12-11T03:22:40.768Z,98089.16
2022-12-11T03:24:50.218Z,98076.66
2022-12-11T03:27:00.973Z,98076.55
2022-12-11T03:29:12.442Z,98080.63
2022-12-11T03:31:22.300Z,98081.35
2022-12-11T03:33:31.331Z,98089.52
2022-12-11T03:35:38.951Z,98078.12
2022-12-11T03:37:45.317Z,98073.95
2022-12-11T03:39:52.874Z,98083.27
2022-12-11T03:41:59.835Z,98073.28
2022-12-11T03:44:05.200Z,98081.17
2022-12-11T03:46:12.540Z,98082.91
2022-12-11T03:48:18.773Z,98082.16
2022-12-11T03:50:25.766Z,98093.35
2022-12-11T03:52:32.040Z,98074.08
2022-12-11T03:54:38.053Z,98076.72
2022-12-11T03:56:45.219Z,98080.33
2022-12-11T03:58:49.870Z,98079.46
2022-12-11T04:00:54.565Z,98089.80
2022-12-11T04:02:59.305Z,98080.61
2022-12-11T04:05:04.188Z,98084.25
2022-12-11T04:07:08.838Z,98105.70
2022-12-11T04:09:13.560Z,98095.96
2022-12-11T04:11:18.260Z,98093.16
2022-12-11T04:13:23.038Z,98091.23
2022-12-11T04:15:27.729Z,98101.56
2022-12-11T04:17:34.163Z,98092.08
2022-12-11T04:19:41.970Z,98082.23
2022-12-11T04:21:46.670Z,98084.94
2022-12-11T04:23:51.367Z,98087.83
2022-12-11T04:26:02.947Z,98086.77
2022-12-11T04:28:07.646Z,98089.86
2022-12-11T04:30:15.638Z,98096.80
2022-12-11T04:32:20.332Z,98094.41
2022-12-11T04:34:25.030Z,98095.71
2022-12-11T04:36:29.706Z,98093.80
2022-12-11T04:38:34.746Z,98110.29
2022-12-11T04:40:39.390Z,98091.31
2022-12-11T04:42:44.619Z,98093.88
2022-12-11T04:44:49.216Z,98089.90
2022-12-11T04:46:53.862Z,98098.48
2022-12-11T04:48:58.941Z,98083.88
2022-12-11T04:51:03.958Z,98079.95
2022-12-11T04:53:08.705Z,98091.27
2022-12-11T04:55:13.931Z,98094.86
2022-12-11T04:57:18.776Z,98089.80
2022-12-11T04:59:23.513Z,98092.83
2022-12-11T05:01:28.159Z,98097.92
2022-12-11T05:03:32.838Z,98097.52
2022-12-11T05:05:37.499Z,98106.59
2022-12-11T05:07:42.551Z,98107.32
2022-12-11T05:09:47.279Z,98122.70
2022-12-11T05:11:51.885Z,98099.01
2022-12-11T05:13:56.477Z,98102.52
2022-12-11T05:16:03.362Z,98106.03
2022-12-11T05:18:08.070Z,98112.33
2022-12-11T05:20:13.283Z,98112.73
2022-12-11T05:22:18.985Z,98126.11
2022-12-11T05:24:23.659Z,98129.33
2022-12-11T05:26:28.544Z,98126.90
2022-12-11T05:28:35.849Z,98124.83
2022-12-11T05:30:40.387Z,98126.16
2022-12-11T05:32:44.999Z,98133.02
2022-12-11T05:34:50.019Z,98130.23
2022-12-11T05:36:54.592Z,98128.11
2022-12-11T05:39:00.535Z,98144.79
2022-12-11T05:41:06.696Z,98133.20
2022-12-11T05:43:11.344Z,98144.56
2022-12-11T05:45:15.989Z,98137.34
2022-12-11T05:47:20.579Z,98147.10
2022-12-11T05:49:30.675Z,98154.94
2022-12-11T05:51:38.883Z,98159.89
2022-12-11T05:53:44.441Z,98154.38
2022-12-11T05:55:49.138Z,98162.85
2022-12-11T05:57:53.715Z,98164.55
2022-12-11T05:59:58.362Z,98165.07
2022-12-11T06:02:03.066Z,98169.70
2022-12-11T06:04:09.933Z,98168.42
2022-12-11T06:06:15.674Z,98170.59
2022-12-11T06:08:20.469Z,98171.13
2022-12-11T06:10:25.104Z,98172.32
2022-12-11T06:12:29.890Z,98180.98
2022-12-11T06:14:34.622Z,98169.90
2022-12-11T06:16:39.724Z,98169.77
2022-12-11T06:18:45.627Z,98178.48
2022-12-11T06:20:50.364Z,98191.66
2022-12-11T06:22:54.997Z,98187.75
2022-12-11T06:24:59.648Z,98189.08
2022-12-11T06:27:04.326Z,98181.02
2022-12-11T06:29:12.523Z,98192.42
2022-12-11T06:31:18.697Z,98186.67
2022-12-11T06:33:23.254Z,98187.64
2022-12-11T06:35:27.913Z,98202.66
2022-12-11T06:37:32.574Z,98194.11
2022-12-11T06:39:37.183Z,98213.89
2022-12-11T06:41:41.819Z,98193.77
2022-12-11T06:43:46.603Z,98205.14
2022-12-11T06:45:51.510Z,98216.95
2022-12-11T06:47:56.179Z,98193.89
2022-12-11T06:50:00.824Z,98201.86
2022-12-11T06:52:06.932Z,98188.88
2022-12-11T06:54:11.612Z,98177.70
2022-12-11T06:56:16.814Z,98190.73
2022-12-11T06:58:21.472Z,98205.36
2022-12-11T07:00:26.138Z,98200.51
2022-12-11T07:02:30.795Z,98211.23
2022-12-11T07:04:35.550Z,98208.13
2022-12-11T07:06:40.256Z,98206.25
2022-12-11T07:08:44.846Z,98195.23
2022-12-11T07:10:49.402Z,98215.92
2022-12-11T07:12:55.570Z,98228.23
2022-12-11T07:15:00.226Z,98220.13
2022-12-11T07:17:04.822Z,98246.48
2022-12-11T07:19:09.520Z,98224.77
2022-12-11T07:21:15.175Z,98220.82
2022-12-11T07:23:20.172Z,98226.20
2022-12-11T07:25:24.899Z,98226.20
2022-12-11T07:27:29.567Z,98225.58
2022-12-11T07:29:34.521Z,98222.55
2022-12-11T07:31:39.188Z,98226.84
2022-12-11T07:33:44.680Z,98230.25
2022-12-11T07:35:49.468Z,98230.82
2022-12-11T07:37:54.135Z,98232.15
2022-12-11T07:39:58.875Z,98225.41
2022-12-11T07:42:03.648Z,98234.66
2022-12-11T07:44:08.611Z,98243.57
2022-12-11T07:46:16.022Z,98239.08
2022-12-11T07:48:20.691Z,98227.55
2022-12-11T07:50:25.387Z,98231.59
2022-12-11T07:52:30.100Z,98220.02
2022-12-11T07:54:34.720Z,98219.55
2022-12-11T07:56:43.693Z,98216.63
2022-12-11T07:58:49.609Z,98228.05
2022-12-11T08:00:54.404Z,98221.80
2022-12-11T08:02:59.941Z,98220.42
2022-12-11T08:05:05.196Z,98219.23
2022-12-11T08:07:09.810Z,98219.52
2022-12-11T08:09:20.967Z,98221.33
2022-12-11T08:11:26.525Z,98225.52
2022-12-11T08:13:31.494Z,98215.02
2022-12-11T08:15:36.922Z,98225.61
2022-12-11T08:17:41.603Z,98228.69
2022-12-11T08:19:49.213Z,98234.64
2022-12-11T08:21:53.900Z,98223.20
2022-12-11T08:23:58.668Z,98236.96
2022-12-11T08:26:05.585Z,98233.14
2022-12-11T08:28:10.186Z,98224.77
2022-12-11T08:30:15.636Z,98235.71
2022-12-11T08:32:20.520Z,98244.16
2022-12-11T08:34:25.262Z,98230.24
2022-12-11T08:36:30.312Z,98232.36
2022-12-11T08:38:35.453Z,98240.21
2022-12-11T08:40:40.185Z,98253.87
2022-12-11T08:42:45.059Z,98266.36
2022-12-11T08:44:49.751Z,98256.88
2022-12-11T08:46:57.173Z,98259.95
2022-12-11T08:49:01.833Z,98265.32
2022-12-11T08:51:08.663Z,98266.09
2022-12-11T08:53:13.360Z,98258.05
2022-12-11T08:55:18.030Z,98273.88
2022-12-11T08:57:24.106Z,98262.73
2022-12-11T08:59:28.916Z,98256.02
2022-12-11T09:01:33.632Z,98273.69
2022-12-11T09:03:39.283Z,98262.59
2022-12-11T09:05:44.725Z,98254.70
2022-12-11T09:07:49.406Z,98255.27
2022-12-11T09:09:55.651Z,98271.83
2022-12-11T09:12:00.332Z,98252.05
2022-12-11T09:14:08.008Z,98257.41
2022-12-11T09:16:14.819Z,98251.00
2022-12-11T09:18:19.502Z,98248.16
2022-12-11T09:20:24.201Z,98260.60
2022-12-11T09:22:29.061Z,98249.61
2022-12-11T09:24:33.795Z,98271.23
2022-12-11T09:26:38.707Z,98252.33
2022-12-11T09:28:47.377Z,98259.54
2022-12-11T09:30:52.777Z,98257.79
2022-12-11T09:32:57.441Z,98256.18
2022-12-11T09:35:02.069Z,98255.80
2022-12-11T09:37:06.760Z,98254.90
2022-12-11T09:39:13.628Z,98242.08
2022-12-11T09:41:35.907Z,98245.20
2022-12-11T09:43:46.562Z,98250.67
2022-12-11T09:45:53.142Z,98234.89
2022-12-11T09:47:58.429Z,98235.73
2022-12-11T09:50:12.995Z,98222.80
2022-12-11T09:52:24.455Z,98222.59
2022-12-11T09:54:29.287Z,98222.40
2022-12-11T09:56:39.309Z,98218.28
2022-12-11T09:58:54.380Z,98222.83
2022-12-11T10:01:03.272Z,98232.63
2022-12-11T10:03:34.102Z,98226.03
2022-12-11T10:05:47.213Z,98228.80
2022-12-11T10:07:58.988Z,98219.05
2022-12-11T10:10:16.656Z,98210.92
2022-12-11T10:12:32.726Z,98210.05
2022-12-11T10:14:49.698Z,98214.94
2022-12-11T10:16:59.674Z,98211.14
2022-12-11T10:19:05.027Z,98205.56
2022-12-11T10:21:12.349Z,98207.34
2022-12-11T10:23:22.337Z,98204.30
2022-12-11T10:25:31.224Z,98218.70
2022-12-11T10:27:38.867Z,98208.65
2022-12-11T10:29:44.148Z,98217.37
2022-12-11T10:31:55.742Z,98223.75
2022-12-11T10:34:02.969Z,98206.28
2022-12-11T10:36:13.228Z,98202.08
2022-12-11T10:38:21.734Z,98214.42
2022-12-11T10:40:29.210Z,98209.70
2022-12-11T10:42:33.886Z,98196.23
2022-12-11T10:44:38.928Z,98204.67
2022-12-11T10:46:43.811Z,98210.02
2022-12-11T10:48:50.540Z,98209.08
2022-12-11T10:51:01.541Z,98201.30
2022-12-11T10:53:06.841Z,98217.06
2022-12-11T10:55:21.313Z,98201.88
2022-12-11T10:57:31.289Z,98210.70
2022-12-11T10:59:44.155Z,98220.84
2022-12-11T11:01:49.595Z,98206.19
2022-12-11T11:04:02.439Z,98198.78
2022-12-11T11:06:15.314Z,98203.86
2022-12-11T11:08:21.993Z,98201.84
2022-12-11T11:10:26.751Z,98194.83
2022-12-11T11:12:37.047Z,98199.08
2022-12-11T11:14:41.753Z,98195.90
2022-12-11T11:16:49.080Z,98189.62
2022-12-11T11:18:55.750Z,98186.21
2022-12-11T11:21:01.110Z,98185.69
2022-12-11T11:23:14.890Z,98189.89
2022-12-11T11:25:21.359Z,98208.74
2022-12-11T11:27:34.148Z,98197.71
2022-12-11T11:29:38.996Z,98199.30
2022-12-11T11:31:43.684Z,98195.90
2022-12-11T11:33:54.943Z,98189.04
2022-12-11T11:36:01.539Z,98205.58
2022-12-11T11:38:17.732Z,98202.34
2022-12-11T11:40:27.123Z,98204.53
2022-12-11T11:42:43.247Z,98193.73
2022-12-11T11:44:57.671Z,98194.97
2022-12-11T11:47:09.083Z,98182.01
2022-12-11T11:49:21.594Z,98184.79
2022-12-11T11:51:30.654Z,98190.53
2022-12-11T11:53:38.927Z,98201.80
2022-12-11T11:55:53.487Z,98186.65
2022-12-11T11:58:02.823Z,98189.91
2022-12-11T12:00:16.856Z,98196.11
2022-12-11T12:02:22.097Z,98198.00
2022-12-11T12:04:30.165Z,98210.83
2022-12-11T12:06:52.436Z,98194.86
2022-12-11T12:09:08.351Z,98194.35
2022-12-11T12:11:22.569Z,98199.07
2022-12-11T12:13:52.263Z,98186.41
2022-12-11T12:15:59.369Z,98182.02
2022-12-11T12:18:14.913Z,98179.88
2022-12-11T12:20:28.261Z,98200.85
2022-12-11T12:22:51.412Z,98187.88
2022-12-11T12:25:06.877Z,98197.47
2022-12-11T12:27:50.563Z,98214.09
2022-12-11T12:29:56.030Z,98213.36
2022-12-11T12:32:09.619Z,98201.04
2022-12-11T12:34:26.019Z,98205.60
2022-12-11T12:36:39.238Z,98197.23
2022-12-11T12:38:53.976Z,98198.89
2022-12-11T12:41:09.522Z,98201.97
2022-12-11T12:43:30.276Z,98190.35
2022-12-11T12:45:44.341Z,98192.42
2022-12-11T12:47:53.548Z,98211.58
2022-12-11T12:50:01.461Z,98203.48
2022-12-11T12:52:12.548Z,98197.52
2022-12-11T12:54:19.913Z,98197.27
2022-12-11T12:56:27.419Z,98188.38
2022-12-11T12:58:40.975Z,98186.87
2022-12-11T13:00:46.241Z,98200.39
2022-12-11T13:02:52.051Z,98211.19
2022-12-11T13:05:02.889Z,98210.53
2022-12-11T13:07:17.790Z,98200.55
2022-12-11T13:09:24.380Z,98187.05
2022-12-11T13:11:35.909Z,98192.21
2022-12-11T13:13:43.377Z,98203.13
2022-12-11T13:15:48.160Z,98207.90
2022-12-11T13:17:53.128Z,98192.22
2022-12-11T13:20:17.461Z,98191.08
2022-12-11T13:22:25.274Z,98207.80
2022-12-11T13:24:32.296Z,98189.15
2022-12-11T13:26:37.226Z,98179.98
2022-12-11T13:28:58.614Z,98201.66
2022-12-11T13:31:31.966Z,98203.61
2022-12-11T13:33:42.929Z,98195.16
2022-12-11T13:35:48.020Z,98210.63
2022-12-11T13:37:53.681Z,98191.33
2022-12-11T13:39:59.106Z,98198.05
2022-12-11T13:42:06.799Z,98204.66
2022-12-11T13:44:22.347Z,98209.24
2022-12-11T13:46:32.072Z,98206.43
2022-12-11T13:48:40.961Z,98204.74
2022-12-11T13:50:46.599Z,98209.45
2022-12-11T13:53:00.279Z,98217.39
2022-12-11T13:55:23.041Z,98211.75
2022-12-11T13:57:28.248Z,98214.00
2022-12-11T13:59:36.086Z,98207.77
2022-12-11T14:01:41.773Z,98205.66
2022-12-11T14:03:53.252Z,98213.23
2022-12-11T14:05:58.375Z,98228.08
2022-12-11T14:08:09.162Z,98225.61
2022-12-11T14:10:21.205Z,98222.89
2022-12-11T14:12:26.396Z,98237.84
2022-12-11T14:14:40.397Z,98234.40
2022-12-11T14:16:49.340Z,98241.61
2022-12-11T14:19:03.526Z,98253.08
2022-12-11T14:21:18.315Z,98252.72
2022-12-11T14:23:25.569Z,98248.57
2022-12-11T14:25:30.971Z,98252.15
2022-12-11T14:27:36.844Z,98243.75
2022-12-11T14:29:42.620Z,98238.19
2022-12-11T14:31:47.823Z,98248.36
2022-12-11T14:33:55.987Z,98243.79
2022-12-11T14:36:03.324Z,98247.77
2022-12-11T14:38:17.042Z,98242.74
2022-12-11T14:40:28.574Z,98245.25
2022-12-11T14:42:38.264Z,98251.27
2022-12-11T14:44:50.547Z,98250.35
2022-12-11T14:47:00.981Z,98256.10
2022-12-11T14:49:16.919Z,98255.87
2022-12-11T14:51:23.724Z,98260.89
2022-12-11T14:53:33.810Z,98255.14
2022-12-11T14:55:40.375Z,98260.39
2022-12-11T14:57:47.700Z,98274.64
2022-12-11T14:59:55.429Z,98267.83
2022-12-11T15:02:03.367Z,98266.08
2022-12-11T15:04:22.694Z,98268.25
2022-12-11T15:06:30.287Z,98273.49
2022-12-11T15:08:36.377Z,98268.20
2022-12-11T15:10:57.795Z,98269.58
2022-12-11T15:13:03.578Z,98272.65
2022-12-11T15:15:17.882Z,98277.54
2022-12-11T15:17:27.326Z,98279.52
2022-12-11T15:19:34.902Z,98280.93
2022-12-11T15:21:40.032Z,98282.84
2022-12-11T15:23:53.110Z,98286.56
2022-12-11T15:26:00.803Z,98289.86
2022-12-11T15:28:06.249Z,98304.29
2022-12-11T15:30:27.652Z,98301.02
2022-12-11T15:32:32.520Z,98293.75
2022-12-11T15:34:45.087Z,98305.56
2022-12-11T15:36:49.993Z,98301.94
2022-12-11T15:38:55.087Z,98304.16
2022-12-11T15:41:01.410Z,98311.52
2022-12-11T15:43:07.108Z,98315.71
2022-12-11T15:45:18.517Z,98308.86
2022-12-11T15:47:26.023Z,98315.95
2022-12-11T15:49:30.981Z,98311.88
2022-12-11T15:51:41.160Z,98317.34
2022-12-11T15:53:48.018Z,98313.90
2022-12-11T15:55:53.807Z,98311.70
2022-12-11T15:58:02.260Z,98308.20
2022-12-11T16:00:13.728Z,98316.95
2022-12-11T16:02:20.292Z,98314.69
2022-12-11T16:04:25.084Z,98313.23
2022-12-11T16:06:29.928Z,98312.73
2022-12-11T16:08:34.871Z,98316.15
2022-12-11T16:10:40.333Z,98317.12
2022-12-11T16:12:45.894Z,98323.59
2022-12-11T16:14:51.137Z,98323.88
2022-12-11T16:16:55.905Z,98328.84
2022-12-11T16:19:01.051Z,98324.48
2022-12-11T16:21:08.409Z,98332.15
2022-12-11T16:23:14.366Z,98331.40
2022-12-11T16:25:19.847Z,98331.73
2022-12-11T16:27:25.983Z,98323.99
2022-12-11T16:29:33.804Z,98324.83
2022-12-11T16:31:39.159Z,98324.30
2022-12-11T16:33:44.654Z,98326.22
2022-12-11T16:35:49.804Z,98325.92
2022-12-11T16:37:56.731Z,98327.04
2022-12-11T16:40:01.498Z,98323.73
2022-12-11T16:42:07.725Z,98328.98
2022-12-11T16:44:13.620Z,98325.00
2022-12-11T16:46:23.466Z,98322.52
2022-12-11T16:48:29.335Z,98326.52
2022-12-11T16:50:35.204Z,98317.48
2022-12-11T16:52:40.624Z,98319.11
2022-12-11T16:54:45.450Z,98322.23
2022-12-11T16:56:50.786Z,98315.66
2022-12-11T16:58:56.940Z,98313.23
2022-12-11T17:01:02.386Z,98317.56
2022-12-11T17:03:07.994Z,98321.71
2022-12-11T17:05:14.277Z,98323.20
2022-12-11T17:07:19.493Z,98320.16
2022-12-11T17:09:24.862Z,98319.48
2022-12-11T17:11:32.431Z,98320.48
2022-12-11T17:13:37.156Z,98320.45
2022-12-11T17:15:43.751Z,98326.19
2022-12-11T17:17:52.122Z,98318.02
2022-12-11T17:19:58.184Z,98318.78
2022-12-11T17:22:03.307Z,98317.38
2022-12-11T17:24:10.828Z,98318.33
2022-12-11T17:26:19.111Z,98315.20
2022-12-11T17:28:24.792Z,98317.64
2022-12-11T17:30:31.378Z,98329.77
2022-12-11T17:32:39.714Z,98323.32
2022-12-11T17:34:46.056Z,98322.37
2022-12-11T17:36:52.355Z,98325.67
2022-12-11T17:38:57.823Z,98332.34
2022-12-11T17:41:07.954Z,98333.41
2022-12-11T17:43:14.048Z,98333.20
2022-12-11T17:45:19.877Z,98332.00
2022-12-11T17:47:26.491Z,98333.24
2022-12-11T17:49:31.891Z,98332.29
2022-12-11T17:51:37.616Z,98334.77
2022-12-11T17:53:43.233Z,98338.67
2022-12-11T17:55:49.058Z,98340.91
2022-12-11T17:57:54.667Z,98345.59
2022-12-11T17:59:59.612Z,98345.48
2022-12-11T18:02:05.072Z,98347.32
2022-12-11T18:04:11.093Z,98344.11
2022-12-11T18:06:18.151Z,98346.86
2022-12-11T18:08:26.803Z,98349.98
2022-12-11T18:10:38.255Z,98355.14
2022-12-11T18:12:44.373Z,98355.62
2022-12-11T18:14:50.354Z,98361.81
2022-12-11T18:16:55.780Z,98360.66
2022-12-11T18:19:01.316Z,98362.73
2022-12-11T18:21:07.416Z,98369.69
2022-12-11T18:23:13.200Z,98367.24
2022-12-11T18:25:22.255Z,98366.20
2022-12-11T18:27:29.591Z,98364.66
2022-12-11T18:29:35.940Z,98374.59
2022-12-11T18:31:43.398Z,98381.38
2022-12-11T18:33:49.368Z,98373.73
2022-12-11T18:35:55.927Z,98376.59
2022-12-11T18:38:06.219Z,98375.96
2022-12-11T18:40:13.301Z,98369.98
2022-12-11T18:42:37.948Z,98370.80
2022-12-11T18:44:43.862Z,98376.27
2022-12-11T18:46:53.862Z,98375.81
2022-12-11T18:48:59.586Z,98376.02
2022-12-11T18:51:10.058Z,98375.77
2022-12-11T18:53:22.033Z,98374.02
2022-12-11T18:55:27.550Z,98376.01
2022-12-11T18:57:34.498Z,98378.95
2022-12-11T18:59:40.851Z,98377.89
2022-12-11T19:01:50.643Z,98383.83
2022-12-11T19:04:03.485Z,98380.02
2022-12-11T19:06:14.202Z,98378.48
2022-12-11T19:08:22.028Z,98373.86
2022-12-11T19:10:28.984Z,98373.66
2022-12-11T19:12:34.699Z,98374.82
2022-12-11T19:14:41.752Z,98367.77
2022-12-11T19:16:48.066Z,98365.38
2022-12-11T19:18:56.397Z,98361.64
2022-12-11T19:21:08.726Z,98364.65
2022-12-11T19:23:20.915Z,98360.64
2022-12-11T19:25:27.174Z,98361.91
2022-12-11T19:27:34.416Z,98359.67
2022-12-11T19:29:40.773Z,98359.95
2022-12-11T19:31:48.123Z,98362.02
2022-12-11T19:33:56.937Z,98360.08
2022-12-11T19:36:08.593Z,98359.59
2022-12-11T19:38:15.039Z,98356.52
2022-12-11T19:40:21.999Z,98355.83
2022-12-11T19:42:31.253Z,98354.92
2022-12-11T19:44:39.722Z,98358.29
2022-12-11T19:46:46.514Z,98354.25
2022-12-11T19:48:53.605Z,98350.10
2022-12-11T19:51:06.312Z,98355.21
2022-12-11T19:53:19.074Z,98346.14
2022-12-11T19:55:33.317Z,98345.58
2022-12-11T19:57:39.369Z,98347.05
2022-12-11T19:59:45.182Z,98351.84
2022-12-11T20:01:51.710Z,98352.64
2022-12-11T20:03:59.571Z,98352.79
2022-12-11T20:06:08.785Z,98355.74
2022-12-11T20:08:43.692Z,98356.38
2022-12-11T20:10:54.939Z,98352.07
2022-12-11T20:13:01.433Z,98352.61
2022-12-11T20:15:09.122Z,98357.68
2022-12-11T20:17:15.105Z,98360.08
2022-12-11T20:19:22.724Z,98355.05
2022-12-11T20:21:29.707Z,98357.89
2022-12-11T20:23:37.073Z,98354.67
2022-12-11T20:25:59.048Z,98354.35
2022-12-11T20:28:08.626Z,98356.61
2022-12-11T20:30:18.550Z,98351.75
2022-12-11T20:32:23.524Z,98360.27
2022-12-11T20:34:29.458Z,98360.59
2022-12-11T20:36:34.773Z,98359.30
2022-12-11T20:38:41.716Z,98364.16
2022-12-11T20:40:50.481Z,98358.56
2022-12-11T20:42:57.154Z,98356.72
2022-12-11T20:45:05.630Z,98352.13
2022-12-11T20:47:12.151Z,98358.55
2022-12-11T20:49:18.069Z,98353.08
2022-12-11T20:51:26.359Z,98353.48
2022-12-11T20:53:32.495Z,98358.04
2022-12-11T20:55:41.233Z,98356.14
2022-12-11T20:57:47.332Z,98360.55
2022-12-11T20:59:53.011Z,98358.50
2022-12-11T21:01:58.589Z,98362.94
2022-12-11T21:04:08.230Z,98359.86
2022-12-11T21:06:19.742Z,98360.27
2022-12-11T21:08:24.905Z,98360.87
2022-12-11T21:10:30.007Z,98353.89
2022-12-11T21:12:35.895Z,98351.63
2022-12-11T21:14:42.966Z,98354.80
2022-12-11T21:16:50.155Z,98355.21
2022-12-11T21:18:57.003Z,98354.77
2022-12-11T21:21:02.746Z,98361.06
2022-12-11T21:23:08.543Z,98368.06
2022-12-11T21:25:14.091Z,98363.80
2022-12-11T21:27:20.895Z,98368.41
2022-12-11T21:29:27.167Z,98368.34
2022-12-11T21:31:32.447Z,98374.11
2022-12-11T21:33:38.302Z,98370.90
2022-12-11T21:35:43.457Z,98371.75
2022-12-11T21:37:48.352Z,98369.26
2022-12-11T21:39:56.411Z,98362.98
2022-12-11T21:42:01.976Z,98374.13
2022-12-11T21:46:32.051Z,98373.56
2022-12-11T21:48:37.523Z,98365.45
2022-12-11T21:50:42.783Z,98367.43
2022-12-11T21:52:47.509Z,98368.05
2022-12-11T21:54:52.196Z,98364.16
2022-12-11T21:56:56.889Z,98366.79
2022-12-11T21:59:01.746Z,98360.66
2022-12-11T22:01:11.053Z,98362.79
2022-12-11T22:03:15.870Z,98360.18
2022-12-11T22:05:20.589Z,98357.63
2022-12-11T22:07:25.210Z,98357.80
2022-12-11T22:09:29.775Z,98358.63
2022-12-11T22:11:35.204Z,98362.05
2022-12-11T22:13:39.984Z,98360.30
2022-12-11T22:15:44.699Z,98363.07
2022-12-11T22:17:49.346Z,98355.45
2022-12-11T22:19:54.073Z,98361.54
2022-12-11T22:21:58.657Z,98352.63
2022-12-11T22:24:03.791Z,98365.13
2022-12-11T22:26:09.463Z,98361.20
2022-12-11T22:28:14.240Z,98363.73
2022-12-11T22:30:19.184Z,98354.43
2022-12-11T22:32:26.184Z,98360.34
2022-12-11T22:34:30.992Z,98357.91
2022-12-11T22:36:35.581Z,98361.88
2022-12-11T22:38:40.306Z,98363.80
2022-12-11T22:40:44.976Z,98364.52
2022-12-11T22:42:49.664Z,98366.89
2022-12-11T22:44:54.297Z,98364.20
2022-12-11T22:46:58.887Z,98369.17
2022-12-11T22:49:03.520Z,98365.40
2022-12-11T22:51:08.913Z,98365.59
2022-12-11T22:53:13.794Z,98361.14
2022-12-11T22:55:18.679Z,98368.84
2022-12-11T22:57:23.458Z,98361.43
2022-12-11T22:59:28.068Z,98368.85
2022-12-11T23:01:33.229Z,98374.19
2022-12-11T23:03:38.046Z,98379.89
2022-12-11T23:05:42.813Z,98372.29
2022-12-11T23:07:47.653Z,98377.63
2022-12-11T23:09:52.464Z,98375.70
2022-12-11T23:11:57.165Z,98376.11
2022-12-11T23:14:03.996Z,98371.30
2022-12-11T23:16:09.159Z,98375.03
2022-12-11T23:18:13.820Z,98371.64
2022-12-11T23:20:18.596Z,98367.10
2022-12-11T23:22:23.234Z,98365.55
2022-12-11T23:24:27.927Z,98372.42
2022-12-11T23:26:33.177Z,98372.55
2022-12-11T23:28:38.251Z,98377.78
2022-12-11T23:30:42.986Z,98371.95
2022-12-11T23:32:47.641Z,98372.48
2022-12-11T23:34:52.297Z,98370.44
2022-12-11T23:36:57.055Z,98369.46
2022-12-11T23:39:01.819Z,98373.20
2022-12-11T23:41:08.134Z,98366.64
2022-12-11T23:43:12.842Z,98373.48
2022-12-11T23:45:17.569Z,98371.69
2022-12-11T23:47:22.181Z,98368.16
2022-12-11T23:49:26.862Z,98368.02
2022-12-11T23:51:31.652Z,98371.22
2022-12-11T23:53:36.303Z,98371.88
2022-12-11T23:55:44.112Z,98375.67
2022-12-11T23:57:48.752Z,98372.83
2022-12-11T23:59:53.398Z,98374.77
